createdAt,value
2022-11-17T00:00:18.773Z,17.08
2022-11-17T00:02:46.345Z,17.03
2022-11-17T00:05:14.287Z,17.10
2022-11-17T00:07:42.312Z,17.08
2022-11-17T00:10:09.137Z,17.15
2022-11-17T00:12:54.549Z,17.12
2022-11-17T00:15:21.512Z,17.14
2022-11-17T00:18:11.468Z,17.18
2022-11-17T00:21:11.546Z,17.16
2022-11-17T00:23:47.843Z,17.09
2022-11-17T00:26:21.797Z,17.20
2022-11-17T00:28:56.178Z,17.21
2022-11-17T00:31:42.246Z,17.25
2022-11-17T00:34:13.510Z,17.22
2022-11-17T00:36:43.949Z,17.23
2022-11-17T00:39:12.676Z,17.25
2022-11-17T00:41:39.530Z,17.09
2022-11-17T00:44:07.196Z,17.19
2022-11-17T00:46:35.366Z,17.23
2022-11-17T00:49:02.185Z,17.21
2022-11-17T00:51:29.287Z,17.20
2022-11-17T00:53:56.559Z,17.24
2022-11-17T00:56:24.183Z,17.26
2022-11-17T00:58:50.932Z,17.28
2022-11-17T01:01:17.877Z,17.29
2022-11-17T01:03:44.695Z,17.25
2022-11-17T01:06:14.399Z,17.22
2022-11-17T01:08:41.529Z,17.24
2022-11-17T01:11:08.230Z,17.25
2022-11-17T01:13:35.841Z,17.24
2022-11-17T01:16:05.362Z,17.19
2022-11-17T01:18:32.398Z,17.11
2022-11-17T01:21:09.108Z,17.29
2022-11-17T01:23:37.685Z,17.28
2022-11-17T01:26:07.112Z,17.29
2022-11-17T01:28:34.427Z,17.20
2022-11-17T01:31:07.925Z,17.26
2022-11-17T01:33:35.472Z,17.26
2022-11-17T01:36:04.731Z,17.27
2022-11-17T01:38:32.086Z,17.32
2022-11-17T01:41:04.535Z,17.34
2022-11-17T01:43:42.214Z,17.36
2022-11-17T01:46:33.995Z,17.44
2022-11-17T01:49:22.620Z,17.32
2022-11-17T01:51:56.001Z,17.23
2022-11-17T01:54:25.975Z,17.14
2022-11-17T01:56:55.206Z,16.71
2022-11-17T01:59:29.561Z,16.79
2022-11-17T02:01:56.356Z,16.75
2022-11-17T02:04:33.544Z,16.58
2022-11-17T02:07:08.290Z,16.57
2022-11-17T02:09:39.399Z,16.46
2022-11-17T02:12:12.571Z,16.42
2022-11-17T02:14:40.216Z,16.47
2022-11-17T02:17:13.723Z,16.38
2022-11-17T02:19:43.439Z,16.37
2022-11-17T02:22:41.075Z,16.25
2022-11-17T02:25:31.906Z,16.17
2022-11-17T02:28:28.312Z,16.03
2022-11-17T02:31:03.948Z,16.15
2022-11-17T02:34:06.479Z,16.05
2022-11-17T02:36:43.089Z,16.10
2022-11-17T02:39:18.328Z,16.22
2022-11-17T02:42:03.033Z,16.18
2022-11-17T02:44:33.876Z,16.22
2022-11-17T02:47:05.249Z,16.23
2022-11-17T02:49:37.396Z,16.26
2022-11-17T02:52:06.167Z,16.29
2022-11-17T02:54:33.544Z,16.24
2022-11-17T02:57:00.613Z,16.29
2022-11-17T02:59:34.395Z,16.28
2022-11-17T03:02:07.084Z,16.27
2022-11-17T03:04:48.358Z,16.20
2022-11-17T03:07:36.461Z,16.18
2022-11-17T03:10:06.060Z,16.23
2022-11-17T03:12:57.259Z,16.10
2022-11-17T03:15:50.842Z,16.11
2022-11-17T03:18:35.681Z,16.04
2022-11-17T03:21:08.633Z,16.10
2022-11-17T03:24:06.986Z,16.01
2022-11-17T03:26:39.655Z,15.95
2022-11-17T03:29:10.911Z,15.80
2022-11-17T03:31:39.106Z,15.81
2022-11-17T03:34:10.206Z,15.92
2022-11-17T03:36:42.356Z,15.97
2022-11-17T03:39:17.137Z,16.16
2022-11-17T03:41:49.830Z,16.15
2022-11-17T03:44:20.916Z,15.92
2022-11-17T03:46:50.481Z,15.87
2022-11-17T03:49:23.052Z,15.82
2022-11-17T03:51:50.341Z,15.67
2022-11-17T03:54:17.535Z,15.74
2022-11-17T03:57:15.280Z,15.64
2022-11-17T03:59:54.726Z,15.52
2022-11-17T04:02:22.823Z,15.43
2022-11-17T04:05:07.756Z,15.37
2022-11-17T04:07:45.904Z,15.25
2022-11-17T04:10:18.307Z,15.29
2022-11-17T04:13:03.943Z,15.35
2022-11-17T04:15:49.339Z,15.32
2022-11-17T04:18:16.675Z,15.27
2022-11-17T04:20:43.393Z,15.33
2022-11-17T04:23:14.281Z,15.19
2022-11-17T04:26:00.748Z,15.29
2022-11-17T04:28:37.692Z,15.23
2022-11-17T04:31:04.629Z,15.20
2022-11-17T04:33:32.855Z,15.18
2022-11-17T04:35:59.963Z,15.15
2022-11-17T04:38:26.782Z,15.22
2022-11-17T04:41:12.080Z,15.13
2022-11-17T04:43:39.579Z,15.08
2022-11-17T04:46:06.880Z,15.16
2022-11-17T04:48:33.596Z,15.22
2022-11-17T04:51:00.369Z,15.20
2022-11-17T04:53:27.050Z,15.23
2022-11-17T04:55:53.735Z,15.24
2022-11-17T04:58:20.504Z,15.25
2022-11-17T05:00:47.248Z,15.19
2022-11-17T05:03:15.050Z,15.24
2022-11-17T05:05:45.577Z,15.24
2022-11-17T05:08:12.376Z,15.22
2022-11-17T05:10:57.971Z,15.20
2022-11-17T05:13:27.710Z,15.22
2022-11-17T05:16:22.304Z,15.07
2022-11-17T05:18:48.981Z,15.23
2022-11-17T05:21:15.690Z,15.22
2022-11-17T05:23:54.631Z,15.26
2022-11-17T05:26:24.326Z,15.28
2022-11-17T05:28:51.803Z,15.22
2022-11-17T05:31:18.770Z,15.35
2022-11-17T05:33:45.532Z,15.38
2022-11-17T05:36:12.683Z,15.33
2022-11-17T05:38:40.167Z,15.40
2022-11-17T05:41:07.139Z,15.45
2022-11-17T05:43:34.342Z,15.46
2022-11-17T05:46:01.518Z,15.52
2022-11-17T05:48:28.539Z,15.51
2022-11-17T05:50:56.355Z,15.51
2022-11-17T05:53:24.240Z,15.48
2022-11-17T05:55:50.983Z,15.52
2022-11-17T05:58:26.816Z,15.55
2022-11-17T06:00:55.236Z,15.62
2022-11-17T06:03:30.063Z,15.67
2022-11-17T06:05:57.411Z,15.62
2022-11-17T06:08:24.121Z,15.57
2022-11-17T06:10:50.878Z,15.57
2022-11-17T06:13:20.224Z,15.59
2022-11-17T06:15:46.932Z,15.56
2022-11-17T06:18:17.546Z,15.60
2022-11-17T06:20:49.714Z,15.57
2022-11-17T06:23:18.738Z,15.55
2022-11-17T06:25:45.863Z,15.56
2022-11-17T06:28:15.220Z,15.64
2022-11-17T06:30:43.001Z,15.63
2022-11-17T06:33:12.310Z,15.62
2022-11-17T06:35:40.086Z,15.66
2022-11-17T06:38:07.256Z,15.55
2022-11-17T06:40:33.998Z,15.61
2022-11-17T06:43:10.018Z,15.62
2022-11-17T06:45:44.740Z,15.64
2022-11-17T06:48:14.044Z,15.65
2022-11-17T06:50:41.583Z,15.58
2022-11-17T06:53:10.712Z,15.60
2022-11-17T06:55:38.117Z,15.60
2022-11-17T06:58:07.228Z,15.58
2022-11-17T07:00:36.098Z,15.50
2022-11-17T07:03:05.266Z,15.58
2022-11-17T07:05:34.237Z,15.58
2022-11-17T07:08:02.810Z,15.57
2022-11-17T07:10:30.478Z,15.54
2022-11-17T07:12:57.385Z,15.57
2022-11-17T07:15:24.434Z,15.56
2022-11-17T07:17:51.149Z,15.53
2022-11-17T07:20:18.444Z,15.52
2022-11-17T07:22:45.493Z,15.54
2022-11-17T07:25:12.557Z,15.55
2022-11-17T07:27:39.641Z,15.55
2022-11-17T07:30:07.893Z,15.57
2022-11-17T07:32:35.145Z,15.57
2022-11-17T07:35:02.610Z,15.60
2022-11-17T07:37:33.623Z,15.59
2022-11-17T07:40:00.900Z,15.50
2022-11-17T07:42:27.815Z,15.52
2022-11-17T07:44:54.689Z,15.57
2022-11-17T07:47:21.534Z,15.57
2022-11-17T07:49:48.502Z,15.59
2022-11-17T07:52:15.217Z,15.61
2022-11-17T07:54:42.058Z,15.55
2022-11-17T07:57:08.985Z,15.67
2022-11-17T07:59:35.786Z,15.66
2022-11-17T08:02:02.569Z,15.73
2022-11-17T08:04:29.497Z,15.79
2022-11-17T08:06:56.366Z,15.84
2022-11-17T08:09:23.182Z,15.83
2022-11-17T08:11:51.978Z,15.87
2022-11-17T08:14:18.852Z,15.87
2022-11-17T08:16:45.598Z,15.84
2022-11-17T08:19:12.590Z,15.85
2022-11-17T08:21:41.305Z,15.86
2022-11-17T08:24:08.704Z,15.91
2022-11-17T08:26:35.553Z,15.86
2022-11-17T08:29:02.381Z,15.90
2022-11-17T08:31:29.150Z,15.83
2022-11-17T08:33:55.892Z,15.87
2022-11-17T08:36:22.801Z,15.86
2022-11-17T08:38:49.548Z,15.82
2022-11-17T08:41:16.336Z,15.78
2022-11-17T08:43:43.203Z,15.59
2022-11-17T08:46:13.864Z,15.68
2022-11-17T08:48:41.026Z,15.71
2022-11-17T08:51:08.896Z,15.76
2022-11-17T08:53:36.057Z,15.85
2022-11-17T08:56:07.301Z,15.91
2022-11-17T08:58:39.372Z,15.99
2022-11-17T09:01:11.941Z,16.08
2022-11-17T09:03:38.778Z,16.10
2022-11-17T09:06:06.235Z,16.14
2022-11-17T09:08:48.309Z,16.07
2022-11-17T09:11:16.916Z,16.19
2022-11-17T09:13:45.797Z,16.27
2022-11-17T09:16:13.466Z,16.34
2022-11-17T09:18:41.541Z,16.46
2022-11-17T09:21:11.060Z,16.63
2022-11-17T09:23:38.318Z,17.16
2022-11-17T09:26:07.476Z,18.35
2022-11-17T09:28:34.832Z,19.25
2022-11-17T09:31:19.667Z,19.88
2022-11-17T09:33:47.106Z,20.08
2022-11-17T09:36:15.425Z,19.75
2022-11-17T09:38:42.635Z,19.30
2022-11-17T09:41:26.534Z,18.85
2022-11-17T09:44:25.642Z,18.63
2022-11-17T09:47:13.109Z,18.44
2022-11-17T09:50:13.828Z,18.37
2022-11-17T09:52:49.435Z,18.17
2022-11-17T09:55:31.098Z,18.04
2022-11-17T09:58:39.873Z,17.89
2022-11-17T10:01:10.886Z,17.88
2022-11-17T10:03:43.866Z,17.84
2022-11-17T10:06:26.552Z,17.76
2022-11-17T10:08:58.891Z,17.86
2022-11-17T10:11:35.184Z,17.88
2022-11-17T10:14:04.375Z,18.26
2022-11-17T10:16:31.592Z,18.39
2022-11-17T10:18:58.591Z,18.65
2022-11-17T10:21:29.607Z,18.76
2022-11-17T10:23:59.274Z,18.66
2022-11-17T10:26:26.530Z,18.55
2022-11-17T10:29:12.594Z,18.34
2022-11-17T10:31:45.196Z,18.15
2022-11-17T10:34:41.327Z,18.02
2022-11-17T10:37:14.223Z,18.36
2022-11-17T10:39:43.168Z,19.29
2022-11-17T10:42:18.788Z,20.21
2022-11-17T10:44:51.441Z,20.73
2022-11-17T10:47:29.280Z,20.54
2022-11-17T10:50:34.694Z,20.52
2022-11-17T10:53:45.553Z,21.05
2022-11-17T10:56:25.115Z,21.09
2022-11-17T10:59:10.190Z,20.67
2022-11-17T11:01:40.828Z,20.06
2022-11-17T11:04:36.719Z,19.32
2022-11-17T11:07:14.729Z,18.80
2022-11-17T11:09:52.087Z,18.38
2022-11-17T11:12:36.890Z,18.22
2022-11-17T11:15:05.164Z,18.34
2022-11-17T11:17:31.960Z,18.38
2022-11-17T11:19:59.648Z,18.31
2022-11-17T11:22:32.242Z,18.27
2022-11-17T11:25:08.106Z,18.31
2022-11-17T11:27:50.383Z,18.46
2022-11-17T11:30:18.353Z,19.35
2022-11-17T11:33:26.475Z,19.91
2022-11-17T11:36:02.289Z,21.91
2022-11-17T11:38:31.521Z,23.71
2022-11-17T11:41:10.067Z,25.40
2022-11-17T11:43:51.827Z,26.78
2022-11-17T11:46:36.525Z,28.11
2022-11-17T11:49:23.457Z,28.52
2022-11-17T11:51:51.707Z,27.65
2022-11-17T11:54:33.237Z,26.65
2022-11-17T11:57:00.996Z,26.20
2022-11-17T12:00:12.005Z,25.53
2022-11-17T12:02:58.730Z,24.40
2022-11-17T12:05:25.415Z,23.59
2022-11-17T12:08:12.381Z,23.25
2022-11-17T12:10:53.659Z,24.60
2022-11-17T12:13:24.300Z,26.10
2022-11-17T12:15:51.173Z,27.36
2022-11-17T12:18:17.816Z,28.62
2022-11-17T12:20:56.790Z,29.46
2022-11-17T12:23:48.023Z,30.75
2022-11-17T12:26:24.673Z,31.04
2022-11-17T12:29:20.079Z,30.62
2022-11-17T12:31:52.081Z,30.23
2022-11-17T12:34:33.070Z,28.35
2022-11-17T12:37:18.793Z,26.62
2022-11-17T12:40:02.243Z,24.86
2022-11-17T12:42:31.081Z,23.62
2022-11-17T12:45:00.505Z,22.83
2022-11-17T12:47:32.828Z,22.15
2022-11-17T12:50:17.824Z,21.49
2022-11-17T12:53:15.569Z,21.01
2022-11-17T12:56:08.005Z,20.52
2022-11-17T12:58:52.319Z,19.98
2022-11-17T13:01:45.052Z,19.41
2022-11-17T13:04:17.330Z,19.06
2022-11-17T13:07:07.386Z,18.44
2022-11-17T13:09:36.608Z,18.28
2022-11-17T13:12:09.876Z,18.22
2022-11-17T13:14:53.056Z,18.39
2022-11-17T13:17:22.654Z,18.57
2022-11-17T13:19:58.748Z,18.69
2022-11-17T13:22:25.926Z,18.77
2022-11-17T13:24:54.037Z,18.82
2022-11-17T13:27:28.611Z,19.18
2022-11-17T13:30:15.073Z,19.26
2022-11-17T13:32:42.961Z,19.40
2022-11-17T13:35:24.899Z,19.37
2022-11-17T13:38:05.894Z,19.47
2022-11-17T13:40:35.985Z,19.49
2022-11-17T13:43:04.991Z,19.51
2022-11-17T13:45:31.908Z,19.56
2022-11-17T13:47:59.569Z,19.57
2022-11-17T13:50:32.012Z,19.56
2022-11-17T13:53:22.845Z,19.49
2022-11-17T13:55:50.044Z,19.43
2022-11-17T13:58:35.474Z,19.38
2022-11-17T14:01:02.428Z,19.39
2022-11-17T14:03:36.241Z,19.37
2022-11-17T14:06:08.619Z,19.30
2022-11-17T14:08:36.910Z,19.27
2022-11-17T14:11:12.529Z,19.28
2022-11-17T14:13:42.693Z,19.30
2022-11-17T14:16:27.186Z,19.17
2022-11-17T14:19:00.809Z,19.07
2022-11-17T14:21:28.937Z,19.04
2022-11-17T14:24:12.180Z,18.84
2022-11-17T14:26:44.989Z,18.84
2022-11-17T14:29:13.736Z,19.03
2022-11-17T14:31:40.620Z,19.06
2022-11-17T14:34:07.422Z,19.08
2022-11-17T14:36:36.753Z,18.88
2022-11-17T14:39:04.709Z,18.90
2022-11-17T14:41:31.562Z,18.89
2022-11-17T14:43:58.286Z,18.80
2022-11-17T14:46:26.939Z,18.63
2022-11-17T14:48:55.605Z,18.46
2022-11-17T14:51:22.921Z,18.27
2022-11-17T14:53:49.822Z,18.29
2022-11-17T14:56:18.761Z,18.30
2022-11-17T14:58:46.847Z,18.28
2022-11-17T15:01:25.712Z,18.32
2022-11-17T15:03:53.450Z,18.52
2022-11-17T15:06:20.638Z,18.50
2022-11-17T15:08:52.950Z,18.64
2022-11-17T15:11:19.844Z,18.53
2022-11-17T15:13:46.640Z,18.41
2022-11-17T15:16:13.790Z,18.53
2022-11-17T15:18:40.735Z,18.43
2022-11-17T15:21:10.397Z,18.54
2022-11-17T15:23:39.831Z,18.54
2022-11-17T15:26:08.427Z,18.44
2022-11-17T15:28:35.349Z,18.33
2022-11-17T15:31:16.985Z,18.07
2022-11-17T15:33:45.377Z,17.79
2022-11-17T15:36:14.860Z,17.47
2022-11-17T15:38:41.873Z,17.15
2022-11-17T15:41:10.555Z,16.92
2022-11-17T15:43:39.340Z,16.45
2022-11-17T15:46:18.584Z,15.92
2022-11-17T15:48:47.502Z,15.39
2022-11-17T15:51:16.675Z,15.20
2022-11-17T15:53:45.179Z,15.11
2022-11-17T15:56:37.788Z,14.95
2022-11-17T15:59:06.272Z,14.97
2022-11-17T16:01:35.303Z,14.95
2022-11-17T16:04:04.410Z,14.98
2022-11-17T16:06:33.223Z,14.99
2022-11-17T16:09:00.198Z,14.98
2022-11-17T16:11:27.869Z,14.89
2022-11-17T16:13:59.329Z,14.88
2022-11-17T16:16:29.040Z,14.86
2022-11-17T16:18:56.004Z,14.85
2022-11-17T16:21:23.124Z,14.86
2022-11-17T16:23:55.110Z,14.88
2022-11-17T16:26:23.836Z,14.93
2022-11-17T16:29:07.087Z,14.97
2022-11-17T16:31:36.083Z,14.97
2022-11-17T16:34:13.722Z,15.02
2022-11-17T16:36:42.638Z,15.07
2022-11-17T16:39:12.486Z,15.14
2022-11-17T16:41:41.277Z,15.16
2022-11-17T16:44:13.029Z,15.14
2022-11-17T16:46:43.685Z,15.24
2022-11-17T16:49:14.149Z,15.28
2022-11-17T16:51:41.539Z,15.28
2022-11-17T16:54:12.610Z,15.26
2022-11-17T16:56:39.459Z,15.24
2022-11-17T16:59:06.500Z,15.28
2022-11-17T17:01:34.857Z,15.29
2022-11-17T17:04:10.422Z,15.24
2022-11-17T17:06:41.043Z,15.23
2022-11-17T17:09:09.480Z,15.21
2022-11-17T17:11:37.574Z,15.24
2022-11-17T17:14:08.277Z,15.24
2022-11-17T17:16:36.464Z,15.29
2022-11-17T17:19:06.299Z,15.28
2022-11-17T17:21:34.133Z,15.30
2022-11-17T17:24:01.245Z,15.26
2022-11-17T17:26:30.560Z,15.32
2022-11-17T17:28:58.836Z,15.27
2022-11-17T17:31:29.663Z,15.29
2022-11-17T17:33:56.779Z,15.30
2022-11-17T17:36:25.279Z,15.27
2022-11-17T17:38:56.649Z,15.17
2022-11-17T17:41:29.447Z,15.13
2022-11-17T17:43:59.396Z,15.10
2022-11-17T17:46:26.557Z,15.04
2022-11-17T17:48:53.521Z,14.97
2022-11-17T17:51:23.941Z,14.92
2022-11-17T17:53:51.397Z,14.93
2022-11-17T17:56:20.286Z,14.83
2022-11-17T17:58:49.019Z,14.84
2022-11-17T18:01:19.976Z,14.84
2022-11-17T18:03:48.431Z,14.84
2022-11-17T18:06:17.113Z,14.86
2022-11-17T18:08:44.549Z,14.91
2022-11-17T18:11:21.346Z,14.93
2022-11-17T18:13:50.909Z,14.96
2022-11-17T18:16:23.997Z,15.09
2022-11-17T18:18:56.967Z,15.17
2022-11-17T18:21:24.151Z,15.25
2022-11-17T18:23:52.845Z,15.24
2022-11-17T18:26:28.301Z,15.31
2022-11-17T18:28:57.519Z,15.25
2022-11-17T18:31:27.205Z,14.91
2022-11-17T18:33:56.367Z,14.69
2022-11-17T18:36:23.659Z,14.54
2022-11-17T18:38:51.240Z,14.38
2022-11-17T18:41:19.255Z,14.22
2022-11-17T18:43:46.196Z,14.18
2022-11-17T18:46:18.451Z,14.25
2022-11-17T18:48:48.184Z,14.10
2022-11-17T18:51:21.362Z,14.09
2022-11-17T18:53:52.991Z,14.07
2022-11-17T18:56:25.207Z,14.17
2022-11-17T18:58:52.476Z,14.22
2022-11-17T19:01:22.028Z,14.25
2022-11-17T19:03:51.551Z,14.24
2022-11-17T19:06:19.351Z,14.22
2022-11-17T19:08:46.572Z,14.29
2022-11-17T19:11:13.572Z,14.13
2022-11-17T19:13:42.310Z,14.34
2022-11-17T19:16:15.043Z,14.37
2022-11-17T19:18:42.957Z,14.34
2022-11-17T19:21:15.746Z,14.50
2022-11-17T19:23:49.645Z,14.55
2022-11-17T19:26:19.564Z,14.60
2022-11-17T19:28:46.885Z,14.58
2022-11-17T19:31:22.890Z,14.51
2022-11-17T19:33:50.348Z,14.43
2022-11-17T19:36:19.419Z,14.37
2022-11-17T19:38:51.331Z,14.26
2022-11-17T19:41:26.480Z,14.21
2022-11-17T19:43:54.560Z,14.24
2022-11-17T19:46:22.172Z,14.27
2022-11-17T19:48:49.244Z,14.26
2022-11-17T19:51:18.718Z,14.24
2022-11-17T19:53:46.492Z,14.21
2022-11-17T19:56:13.911Z,14.20
2022-11-17T19:58:41.474Z,14.15
2022-11-17T20:01:12.389Z,14.12
2022-11-17T20:03:42.185Z,14.13
2022-11-17T20:06:11.137Z,14.02
2022-11-17T20:08:38.192Z,14.03
2022-11-17T20:11:06.487Z,14.02
2022-11-17T20:13:33.921Z,14.02
2022-11-17T20:16:02.854Z,13.94
2022-11-17T20:18:31.133Z,13.84
2022-11-17T20:20:58.222Z,13.80
2022-11-17T20:23:25.350Z,13.78
2022-11-17T20:25:52.115Z,13.77
2022-11-17T20:28:18.923Z,13.69
2022-11-17T20:30:45.708Z,13.65
2022-11-17T20:33:12.936Z,13.60
2022-11-17T20:35:39.881Z,13.63
2022-11-17T20:38:07.920Z,13.61
2022-11-17T20:40:36.212Z,13.62
2022-11-17T20:43:03.164Z,13.69
2022-11-17T20:45:30.428Z,13.73
2022-11-17T20:47:57.277Z,13.75
2022-11-17T20:50:24.158Z,13.83
2022-11-17T20:52:50.900Z,13.82
2022-11-17T20:55:17.744Z,13.93
2022-11-17T20:57:44.725Z,13.93
2022-11-17T21:00:12.094Z,13.99
2022-11-17T21:02:38.860Z,13.96
2022-11-17T21:05:06.133Z,13.95
2022-11-17T21:07:32.981Z,13.99
2022-11-17T21:09:59.741Z,13.92
2022-11-17T21:12:26.504Z,13.87
2022-11-17T21:14:53.317Z,13.82
2022-11-17T21:17:38.726Z,13.74
2022-11-17T21:20:06.214Z,13.72
2022-11-17T21:22:32.928Z,13.60
2022-11-17T21:24:59.735Z,13.65
2022-11-17T21:27:27.908Z,13.52
2022-11-17T21:29:54.623Z,13.58
2022-11-17T21:32:21.616Z,13.53
2022-11-17T21:34:49.876Z,13.57
2022-11-17T21:37:18.044Z,13.56
2022-11-17T21:39:44.912Z,13.57
2022-11-17T21:42:11.700Z,13.57
2022-11-17T21:44:39.321Z,13.52
2022-11-17T21:47:07.140Z,13.47
2022-11-17T21:49:34.142Z,13.43
2022-11-17T21:52:00.992Z,13.39
2022-11-17T21:54:27.954Z,13.44
2022-11-17T21:56:54.661Z,13.45
2022-11-17T21:59:21.791Z,13.48
2022-11-17T22:01:48.649Z,13.50
2022-11-17T22:04:15.985Z,13.50
2022-11-17T22:06:42.900Z,13.46
2022-11-17T22:09:12.438Z,13.43
2022-11-17T22:11:40.762Z,13.44
2022-11-17T22:14:07.503Z,13.41
2022-11-17T22:16:36.351Z,13.39
2022-11-17T22:19:03.837Z,13.36
2022-11-17T22:21:30.719Z,13.32
2022-11-17T22:23:57.918Z,13.24
2022-11-17T22:26:24.814Z,13.26
2022-11-17T22:28:53.703Z,13.15
2022-11-17T22:31:21.581Z,13.11
2022-11-17T22:33:49.868Z,13.21
2022-11-17T22:36:17.208Z,13.20
2022-11-17T22:38:44.550Z,13.16
2022-11-17T22:41:12.947Z,13.31
2022-11-17T22:43:41.203Z,13.36
2022-11-17T22:46:11.383Z,13.38
2022-11-17T22:48:38.473Z,13.15
2022-11-17T22:51:05.732Z,13.38
2022-11-17T22:53:34.134Z,13.41
2022-11-17T22:56:06.054Z,13.42
2022-11-17T22:58:34.207Z,13.49
2022-11-17T23:01:07.860Z,13.54
2022-11-17T23:03:34.943Z,13.62
2022-11-17T23:06:05.424Z,13.65
2022-11-17T23:08:32.608Z,13.60
2022-11-17T23:11:34.894Z,13.58
2022-11-17T23:13:51.299Z,13.61
2022-11-17T23:16:18.464Z,13.63
2022-11-17T23:18:45.272Z,13.58
2022-11-17T23:21:12.308Z,13.57
2022-11-17T23:23:40.614Z,13.68
2022-11-17T23:26:12.625Z,13.57
2022-11-17T23:28:40.827Z,13.51
2022-11-17T23:31:12.635Z,13.43
2022-11-17T23:33:44.761Z,13.40
2022-11-17T23:36:22.286Z,13.37
2022-11-17T23:38:50.436Z,13.39
2022-11-17T23:41:19.703Z,13.33
2022-11-17T23:43:46.950Z,13.28
2022-11-17T23:46:16.151Z,13.32
2022-11-17T23:48:45.021Z,13.28
2022-11-17T23:51:17.653Z,13.17
2022-11-17T23:53:44.643Z,13.32
2022-11-17T23:56:11.586Z,13.34
2022-11-17T23:58:38.577Z,13.39
